Aviation Digital Data Service (ADDS)

Output produced by METARs form (0432 UTC 21 November 2017)
found at http://www.aviationweather.gov/adds/metars/
 
KBFD 210353Z AUTO 20008KT 10SM CLR 01/M06 A2996 RMK AO2 SLP165 T00061056
KBFD 210253Z AUTO 22010G17KT 10SM CLR 01/M05 A2997 RMK AO2 SLP168 T00061050 58006
KBFD 210153Z AUTO 20007KT 10SM CLR 01/M05 A2998 RMK AO2 SLP172 T00061050
KBFD 210053Z AUTO 10SM CLR 01/M05 A2999 RMK AO2 SLP176 T00061050
KBFD 202353Z AUTO 21007KT 10SM CLR 01/M05 A2999 RMK AO2 SLP176 T00061050 10028 20006 53009
KBFD 202253Z AUTO 22009KT 10SM CLR 01/M05 A2998 RMK AO2 SLP171 T00111050
KBFD 202153Z AUTO 21007KT 10SM CLR 02/M05 A2997 RMK AO2 SLP167 T00221050
KBFD 202053Z AUTO 23007G15KT 10SM CLR 03/M05 A2996 RMK AO2 SLP164 T00281050 55003
KBFD 201953Z AUTO 23010G16KT 10SM CLR 02/M05 A2996 RMK AO2 SLP162 T00221050
KBFD 201853Z AUTO VRB06G17KT 10SM CLR 02/M04 A2997 RMK AO2 SLP166 T00171044
KBFD 201753Z AUTO 25008G16KT 10SM CLR 01/M04 A2997 RMK AO2 SLP170 60000 T00061044 10006 21033 58009
KBFD 201653Z AUTO 24012G17KT 10SM FEW018 BKN070 00/M04 A2998 RMK AO2 SLP173 T00001044
KBFD 201634Z AUTO 24013G20KT 10SM SCT018 BKN070 M01/M04 A2999 RMK AO2 T10061044
KBFD 201607Z AUTO 26010G17KT 10SM BKN015 M01/M04 A2999 RMK AO2 T10111044
KBFD 201553Z AUTO 25010G18KT 220V290 10SM BKN013 BKN018 M01/M04 A3000 RMK AO2 SLP180 T10111044
KBFD 201453Z AUTO 27008G15KT 7SM OVC010 M02/M04 A3000 RMK AO2 SLP181 60000 T10221044 51011
KBFD 201432Z AUTO 23008G16KT 210V270 7SM OVC010 M03/M04 A3000 RMK AO2 T10281044
KBFD 201353Z AUTO VRB05KT 7SM OVC009 M03/M04 A2999 RMK AO2 SNE10 SLP178 P0000 T10281044
KBFD 201332Z AUTO 26007KT 8SM OVC009 M03/M04 A2999 RMK AO2 SNE10 P0000 T10281044
KBFD 201253Z AUTO 25007KT 220V280 3SM -SN BR OVC011 M03/M05 A2998 RMK AO2 SLP175 P0000 T10281050
KBFD 201243Z AUTO 25008KT 220V280 2 1/2SM -SN BR OVC011 M03/M05 A2998 RMK AO2 P0000 T10281050
KBFD 201153Z AUTO 26007KT 210V300 6SM -SN BR OVC013 M03/M05 A2996 RMK AO2 SLP168 P0001 60003 70010 T10281050 11028 21033 53014
KBFD 201053Z AUTO 28013G18KT 5SM -SN SCT020 OVC027 M03/M06 A2994 RMK AO2 SNB43 SLP158 P0000 T10281056
KBFD 201028Z AUTO 27015G20KT 10SM FEW021 BKN025 OVC042 M03/M06 A2994 RMK AO2 T10281056
KBFD 201008Z AUTO 28012KT 10SM FEW016 SCT029 OVC038 M03/M06 A2993 RMK AO2 T10281056
KBFD 200953Z AUTO 28016G23KT 10SM FEW013 BKN022 OVC036 M03/M06 A2992 RMK AO2 SNE28 SLP153 P0000 T10281056
KBFD 200910Z AUTO 27010G16KT 4SM -SN BR FEW009 BKN014 OVC022 M03/M05 A2990 RMK AO2 P0000 T10331050
KBFD 200856Z AUTO 27006KT 2SM -SN BR BKN014 BKN023 OVC027 M03/M05 A2990 RMK AO2 P0000 T10331050
KBFD 200853Z AUTO 27006KT 1 3/4SM -SN BR SCT014 BKN023 OVC029 M03/M05 A2990 RMK AO2 SLP146 P0000 60002 T10331050 51015
KBFD 200832Z AUTO 27007KT 1 3/4SM -SN BR SCT014 BKN019 OVC027 M03/M05 A2990 RMK AO2 P0000 T10331050
KBFD 200824Z AUTO 27007KT 2SM -SN BR BKN019 OVC025 M03/M06 A2989 RMK AO2 P0000 T10331056
KBFD 200805Z AUTO 27011G16KT 4SM -SN BKN022 BKN029 OVC040 M03/M06 A2989 RMK AO2 P0000 T10281056
KBFD 200753Z AUTO 27011G18KT 7SM -SN FEW020 BKN044 OVC050 M03/M06 A2989 RMK AO2 SNE17B39 SLP142 P0000 T10281061
KBFD 200725Z AUTO 27009KT 10SM FEW016 SCT023 OVC041 M03/M06 A2988 RMK AO2 SNE17 P0000 T10281056
KBFD 200708Z AUTO 28015G24KT 3SM -SN BR FEW005 BKN015 OVC037 M03/M05 A2988 RMK AO2 P0000 T10281050
KBFD 200701Z AUTO 27017G24KT 1 1/4SM -SN BR FEW005 BKN015 OVC019 M03/M05 A2987 RMK AO2 P0000 T10281050
KBFD 200653Z AUTO 27013G22KT 1/2SM SN FZFG BKN008 BKN012 OVC019 M03/M04 A2987 RMK AO2 SLP133 P0002 T10281039
KBFD 200644Z AUTO 27006KT 3/4SM -SN BR BKN008 BKN014 OVC020 M03/M04 A2987 RMK AO2 P0002 T10281039
KBFD 200637Z AUTO 28006KT 1 1/4SM -SN BR BKN010 BKN014 OVC020 M03/M04 A2986 RMK AO2 P0001 T10281039
KBFD 200625Z AUTO 28009KT 1/2SM SN FZFG BKN010 BKN018 OVC033 M03/M04 A2986 RMK AO2 P0001 T10331039
KBFD 200617Z AUTO 27006KT 1SM -SN BR BKN014 BKN026 OVC032 M03/M04 A2986 RMK AO2 P0000 T10331044
KBFD 200553Z AUTO 27007KT 2 1/2SM -SN BR FEW017 BKN026 OVC036 M03/M05 A2985 RMK AO2 SLP129 P0000 60003 T10331050 11017 21033 53016
KBFD 200525Z AUTO 27008KT 1 3/4SM -SN BR OVC026 M03/M05 A2985 RMK AO2 P0000 T10281050
KBFD 200516Z AUTO 28009KT 4SM -SN OVC026 M03/M06 A2985 RMK AO2 P0000 T10281056
KBFD 200508Z AUTO 27008KT 3SM -SN OVC030 M03/M06 A2984 RMK AO2 P0000 T10281056
KBFD 200457Z AUTO 28007G18KT 2 1/2SM -SN BKN028 OVC050 M03/M06 A2984 RMK AO2 P0000 T10281056
KBFD 200453Z AUTO 28008G18KT 3SM -SN BKN030 OVC050 M03/M06 A2983 RMK AO2 SLP121 P0000 T10281056 400781028
KBFD 200353Z AUTO 29011G21KT 6SM -SN SCT024 BKN036 OVC043 M02/M06 A2982 RMK AO2 SLP116 P0000 T10221061
KBFD 200346Z AUTO 29012KT 6SM -SN SCT024 BKN034 OVC045 M02/M06 A2982 RMK AO2 P0000 T10221056
KBFD 200319Z AUTO 28009KT 3SM -SN BKN021 BKN028 OVC044 M02/M05 A2981 RMK AO2 P0000 T10221050
KBFD 200310Z AUTO 28010KT 1 1/4SM -SN BR BKN017 OVC022 M03/M05 A2981 RMK AO2 P0000 T10281050
KBFD 200302Z AUTO 28013G17KT 2SM -SN BKN019 OVC024 M02/M05 A2981 RMK AO2 P0000 T10221050
KBFD 200253Z AUTO 29010KT 3SM -SN SCT020 BKN024 OVC046 M02/M05 A2980 RMK AO2 SNB0155 SLP111 P0000 60003 T10221050 52015
KBFD 200230Z AUTO 30011G21KT 3SM -SN FEW017 BKN027 OVC060 M02/M05 A2980 RMK AO2 SNB0155 P0000 T10221050
KBFD 200220Z AUTO 30015G22KT 1 1/4SM -SN BKN020 OVC028 M02/M05 A2979 RMK AO2 SNB0155 P0000 T10221050
KBFD 200212Z AUTO 28014G21KT 2 1/2SM -SN BKN023 BKN028 OVC055 M02/M06 A2979 RMK AO2 SNB0155 P0000 T10221056
KBFD 200153Z AUTO 28011KT 10SM SCT021 BKN045 OVC065 M02/M06 A2978 RMK AO2 PK WND 29029/0118 SNE27 SLP103 P0000 T10171056
KBFD 200151Z AUTO 28008KT 10SM FEW018 BKN055 OVC070 M02/M05 A2978 RMK AO2 PK WND 29029/0118 SNE27 P0000
KBFD 200140Z AUTO 29014KT 10SM FEW018 BKN025 OVC070 M02/M05 A2977 RMK AO2 PK WND 29029/0118 SNE27 P0000 T10171050
KBFD 200129Z AUTO 29012G25KT 7SM FEW015 BKN055 OVC070 M02/M04 A2977 RMK AO2 PK WND 29029/0118 SNE27 P0000 T10171044
KBFD 200056Z AUTO 30012KT 4SM -SN BR SCT008 BKN018 OVC025 M02/M03 A2976 RMK AO2 P0000 T10171033
KBFD 200053Z AUTO 30013G22KT 3SM -SN BR BKN010 BKN017 OVC025 M02/M03 A2976 RMK AO2 SLP095 P0003 T10171033
KBFD 200047Z AUTO 28016G24KT 1SM -SN BR FEW007 OVC012 M02/M03 A2976 RMK AO2 P0003
KBFD 200042Z AUTO 29016G24KT 1/2SM SN FZFG BKN009 OVC014 M02/M03 A2975 RMK AO2 P0003 T10171028
KBFD 200028Z AUTO 28012KT 3/4SM -SN BR FEW006 BKN013 OVC023 M02/M03 A2975 RMK AO2 P0001 T10171028
KBFD 200024Z AUTO 28012KT 1 3/4SM -SN BR FEW008 BKN017 OVC023 M01/M03 A2974 RMK AO2 P0001 T10111028
KBFD 200016Z AUTO 30011G19KT 3SM -SN BR SCT008 BKN015 OVC024 M01/M03 A2974 RMK AO2 P0001 T10111033
KBFD 200013Z AUTO 30014G19KT 2SM -SN BR SCT010 BKN013 OVC024 M01/M03 A2974 RMK AO2 P0001 T10111028
KBFD 192353Z AUTO 31007KT 1 3/4SM -SN BR BKN007 OVC011 M01/M02 A2974 RMK AO2 SNB2258 SLP087 P0002 60003 T10111022 10011 21017 53013
KBFD 192329Z AUTO 29013G18KT 3/4SM -SN BR BKN009 OVC019 M01/M03 A2973 RMK AO2 SNB2258 P0001 T10111028
KBFD 192326Z AUTO 29012G18KT 1 3/4SM -SN BR BKN013 BKN019 OVC026 M01/M03 A2973 RMK AO2 SNB2258 P0000 T10111028
KBFD 192300Z AUTO 29012G20KT 9SM -SN BKN016 BKN026 OVC055 M01/M03 A2972 RMK AO2 SNB2258 P0000 T10061028
KBFD 192253Z AUTO 29015G20KT 9SM BKN014 BKN026 OVC060 M01/M03 A2972 RMK AO2 SNE27B32E49 SLP079 P0000 T10061028
KBFD 192228Z AUTO 29010G17KT 9SM SCT012 OVC020 M01/M03 A2971 RMK AO2 SNE27 P0000 T10061028
KBFD 192221Z AUTO 28011KT 3SM -SN BR BKN012 OVC018 M01/M02 A2971 RMK AO2 P0000 T10061022
KBFD 192210Z AUTO 27008G17KT 2 1/2SM -SN BR BKN014 BKN027 OVC040 M01/M02 A2971 RMK AO2 VIS 1 1/4V4 P0000 T10061022
KBFD 192153Z AUTO 29010G20KT 7SM -SN SCT014 BKN020 OVC043 M01/M03 A2970 RMK AO2 SLP073 P0000 T10061028
KBFD 192132Z AUTO 29011G18KT 4SM -SN BR BKN014 OVC023 M01/M02 A2969 RMK AO2 P0000 T10061022
KBFD 192130Z AUTO 28011G21KT 1 3/4SM -SN BR FEW009 BKN018 OVC022 M01/M02 A2969 RMK AO2 P0000 T10061022
KBFD 192127Z AUTO 28011G21KT 1SM -SN BR BKN012 OVC022 M01/M02 A2969 RMK AO2 P0000 T10061022
KBFD 192123Z AUTO 28013G21KT 1/2SM SN FZFG FEW009 BKN014 OVC025 M01/M02 A2969 RMK AO2 P0000 T10061022
KBFD 192114Z AUTO 29012KT 1 1/2SM -SN BR FEW010 BKN015 OVC022 00/M02 A2969 RMK AO2 P0000 T00001017
KBFD 192108Z AUTO 29011G18KT 3SM -SN BR SCT010 BKN015 OVC030 00/M02 A2969 RMK AO2 P0000 T00001017
KBFD 192105Z AUTO 29010G18KT 2SM -SN BR BKN012 BKN022 OVC030 00/M02 A2968 RMK AO2 P0000 T00001017
KBFD 192056Z AUTO 29011KT 1 3/4SM -SN BR BKN010 OVC016 00/M01 A2968 RMK AO2 P0000 T00001011
KBFD 192053Z AUTO 29008KT 3SM -SN BR BKN010 OVC016 00/M02 A2968 RMK AO2 SLP065 P0000 60001 T00001017 53013
KBFD 192048Z AUTO 29009KT 3SM -SN BR BKN010 OVC020 00/M02 A2968 RMK AO2 P0000
KBFD 192041Z AUTO 28010KT 1 1/4SM -SN BR BKN010 OVC015 00/M01 A2967 RMK AO2 P0000 T00001011
KBFD 192032Z AUTO 27013G17KT 2 1/2SM -SN BR BKN012 OVC021 00/M01 A2967 RMK AO2 VIS 1 1/4V4 P0000 T00001011
KBFD 192027Z AUTO 29008KT 3SM -SN BR SCT010 BKN015 OVC019 00/M01 A2967 RMK AO2 P0000 T00001011
KBFD 192024Z AUTO 28009G16KT 240V300 2 1/2SM -SN BR BKN012 BKN017 OVC022 00/M01 A2967 RMK AO2 P0000 T00001011
KBFD 192011Z AUTO 29011KT 1 1/2SM -SN BR FEW010 OVC016 00/M02 A2966 RMK AO2 P0000 T00001017
KBFD 191958Z AUTO 28012G19KT 2SM -SN BR BKN014 BKN019 OVC027 00/M02 A2966 RMK AO2 P0000 T00001017
KBFD 191953Z AUTO 29012G22KT 1 1/4SM -SN BR SCT014 BKN019 OVC027 00/M02 A2966 RMK AO2 SNB10 SLP055 P0000 T00001017
KBFD 191935Z AUTO 29011G18KT 1 3/4SM -SN BR SCT016 BKN021 OVC033 01/M02 A2965 RMK AO2 SNB10 P0000 T00061017
KBFD 191920Z AUTO 29015G21KT 3SM -SN SCT016 BKN024 OVC040 01/M02 A2965 RMK AO2 SNB10 P0000 T00111022
KBFD 191901Z AUTO 28014G26KT 10SM FEW023 SCT030 OVC041 01/M02 A2965 RMK AO2 T00111022
KBFD 191853Z AUTO 28014G26KT 10SM FEW019 BKN029 OVC044 01/M03 A2965 RMK AO2 PK WND 28028/1834 SNE10 SLP049 P0001 T00111028
KBFD 191753Z AUTO 28014G25KT 3SM -SN BR FEW016 BKN022 OVC050 01/M02 A2964 RMK AO2 PK WND 31026/1732 SNB14 SLP047 P0000 60001 T00061017 10011 20006 51010
KBFD 191733Z AUTO 29020G26KT 3SM -SN BR SCT016 BKN021 OVC055 01/M01 A2965 RMK AO2 PK WND 31026/1732 SNB14 P0000 T00061011
KBFD 191718Z AUTO 29014G22KT 1 3/4SM -SN BR SCT013 BKN018 OVC022 01/M01 A2964 RMK AO2 SNB14 P0000 T00111011
KBFD 191653Z AUTO 29011G21KT 10SM FEW009 BKN015 OVC044 01/M01 A2964 RMK AO2 PK WND 29029/1620 SNE46 SLP046 P0000 T00111006
KBFD 191647Z AUTO 30016G21KT 9SM FEW009 BKN012 OVC044 01/M01 A2964 RMK AO2 PK WND 29029/1620 SNE46 P0000
KBFD 191642Z AUTO 30011G21KT 2 1/2SM -SN BR BKN012 BKN018 OVC044 01/M01 A2964 RMK AO2 PK WND 29029/1620 P0000 T00061006
KBFD 191638Z AUTO 30011G22KT 1 1/4SM -SN BR FEW010 BKN014 OVC027 01/M01 A2963 RMK AO2 PK WND 29029/1620 P0000 T00061006